Terminal Aerodrome Forecast
Issued by NWS

Home | Current Version | Previous Version | Text Only | Print | Product List | Glossary On
Versions: 1 2 3 4 5 6 7 8 9 10 11 12 13 14 15 16 17 18
533
FTUS42 KMLB 260520
TAFSUA
TAF
KSUA 260520Z 2606/2706 28005KT P6SM SKC
     FM261500 21005KT P6SM FEW040
     FM261700 14012KT P6SM SCT040=

USA.gov is the U.S. government's official web portal to all federal, state and local government web resources and services.